Arjay, KY

2:30 PM EDT on August 29, 2016 (GMT -0400)
APRSWXNET | | Change Station

Elev 1085 ft 36.66 °N, 83.66 °W | Updated 37 minutes ago

Scattered Clouds
Scattered Clouds
91 °F
Feels Like 102 °F
N
1
Wind Variable Wind from SW
Gusts 0.0 mph

Today
High -- | Low -- °F
--% Chance of Precip.
Yesterday
High -- | Low -- °F
Precip. -- in
Pressure 30.21 in
Visibility -9999.0 miles
Clouds Scattered Clouds 4900 ft
Heat Index 102 °F
Dew Point 75 °F
Humidity 60%
Rainfall in
Snow Depth Not available.
7:03 AM 8:06 PM
Waning Crescent, 7% visible
METAR KI35 291815Z AUTO 02003KT SCT049 29/19 A3021 RMK AO1
Pressure 30.21 in
Visibility -9999.0 miles
Clouds Scattered Clouds 4900 ft
Heat Index 102 °F
Dew Point 75 °F
Humidity 60%
Rainfall in
Snow Depth Not available.
7:03 AM 8:06 PM
Waning Crescent, 7% visible
METAR KI35 291815Z AUTO 02003KT SCT049 29/19 A3021 RMK AO1

10-Day Weather Forecast

Almanac

Astronomy

Aug. 29, 2016 Rise Set
Actual Time
Civil Twilight
Nautical Twilight
Astronomical Twilight
Moon
Length of Visible Light
Length of Day
Tomorrow will be .
, % of the Moon is Illuminated

Today's Extremes

State Highs State Lows

Community

WunderPhotos

Upload Photos

1,935,684 photos uploaded!

WunderBlog® & News

Nearby

Air Quality

  Air Quality AQ Index Pollutant
Not available.

Snow Depth

Station Depth Elevation

Earthquake Activity

City Distance Mag. Time & Date
Minimum magnitude displayed is 2.5.

Coastal Water Temperatures

Place Temperature

Stations

Nearby Weather Stations

Station Location Temp. Windchill Dew Point Humidity Wind Precip. Elev Updated Type
                   

Watches & Warnings

There are currently no watches in effect.